createdAt,value
2019-01-27T00:00:50.525Z,46.09
2019-01-27T00:01:54.028Z,46.08
2019-01-27T00:02:57.668Z,46.09
2019-01-27T00:03:59.814Z,46.10
2019-01-27T00:05:01.847Z,46.12
2019-01-27T00:06:03.938Z,46.13
2019-01-27T00:07:08.812Z,46.12
2019-01-27T00:08:13.692Z,46.12
2019-01-27T00:09:14.669Z,46.11
2019-01-27T00:10:16.721Z,46.14
2019-01-27T00:11:18.779Z,46.15
2019-01-27T00:12:22.327Z,46.15
2019-01-27T00:13:24.355Z,46.16
2019-01-27T00:14:26.386Z,46.16
2019-01-27T00:15:28.425Z,46.16
2019-01-27T00:16:31.285Z,46.16
2019-01-27T00:17:33.425Z,46.17
2019-01-27T00:18:35.573Z,46.20
2019-01-27T00:19:37.541Z,46.17
2019-01-27T00:20:39.579Z,46.18
2019-01-27T00:21:41.693Z,46.16
2019-01-27T00:22:43.733Z,46.16
2019-01-27T00:23:45.733Z,46.17
2019-01-27T00:24:49.087Z,46.17
2019-01-27T00:25:51.131Z,46.17
2019-01-27T00:26:53.425Z,46.17
2019-01-27T00:27:55.488Z,46.17
2019-01-27T00:28:57.527Z,46.18
2019-01-27T00:29:59.523Z,46.15
2019-01-27T00:31:01.552Z,46.14
2019-01-27T00:32:03.621Z,46.16
2019-01-27T00:33:05.876Z,46.17
2019-01-27T00:34:07.839Z,46.20
2019-01-27T00:35:09.831Z,46.20
2019-01-27T00:36:11.809Z,46.24
2019-01-27T00:37:14.069Z,46.24
2019-01-27T00:38:16.135Z,46.21
2019-01-27T00:39:18.257Z,46.24
2019-01-27T00:40:20.291Z,46.24
2019-01-27T00:41:22.332Z,46.24
2019-01-27T00:42:24.375Z,46.23
2019-01-27T00:43:26.364Z,46.23
2019-01-27T00:44:28.413Z,46.22
2019-01-27T00:45:30.445Z,46.24
2019-01-27T00:46:32.429Z,46.23
2019-01-27T00:47:34.517Z,46.24
2019-01-27T00:48:38.169Z,46.25
2019-01-27T00:49:40.275Z,46.23
2019-01-27T00:50:42.299Z,46.21
2019-01-27T00:51:44.354Z,46.22
2019-01-27T00:52:46.633Z,46.21
2019-01-27T00:53:48.681Z,46.18
2019-01-27T00:54:50.721Z,46.20
2019-01-27T00:55:52.701Z,46.18
2019-01-27T00:56:57.021Z,46.18
2019-01-27T00:57:58.474Z,46.20
2019-01-27T00:59:03.231Z,46.20
2019-01-27T01:00:08.485Z,46.20
2019-01-27T01:01:13.214Z,46.21
2019-01-27T01:02:15.235Z,46.17
2019-01-27T01:03:17.281Z,46.17
2019-01-27T01:04:19.265Z,46.20
2019-01-27T01:05:21.317Z,46.18
2019-01-27T01:06:23.756Z,46.17
2019-01-27T01:07:29.019Z,46.17
2019-01-27T01:08:31.085Z,46.17
2019-01-27T01:09:33.207Z,46.19
2019-01-27T01:10:35.153Z,46.17
2019-01-27T01:11:37.193Z,46.17
2019-01-27T01:12:39.227Z,46.18
2019-01-27T01:13:41.235Z,46.17
2019-01-27T01:14:43.287Z,46.17
2019-01-27T01:15:48.194Z,46.19
2019-01-27T01:16:50.239Z,46.19
2019-01-27T01:17:52.283Z,46.20
2019-01-27T01:18:57.375Z,46.18
2019-01-27T01:19:59.351Z,46.18
2019-01-27T01:21:01.323Z,46.17
2019-01-27T01:22:03.291Z,46.16
2019-01-27T01:23:05.502Z,46.16
2019-01-27T01:24:07.572Z,46.15
2019-01-27T01:25:09.725Z,46.17
2019-01-27T01:26:11.695Z,46.15
2019-01-27T01:27:13.741Z,46.16
2019-01-27T01:28:15.777Z,46.15
2019-01-27T01:29:17.778Z,46.17
2019-01-27T01:30:19.815Z,46.17
2019-01-27T01:31:21.785Z,46.18
2019-01-27T01:32:23.823Z,46.16
2019-01-27T01:33:25.763Z,46.16
2019-01-27T01:34:27.751Z,46.17
2019-01-27T01:35:31.595Z,46.17
2019-01-27T01:36:33.634Z,46.17
2019-01-27T01:37:35.674Z,46.17
2019-01-27T01:38:37.642Z,46.17
2019-01-27T01:39:39.719Z,46.18
2019-01-27T01:40:41.752Z,46.17
2019-01-27T01:41:43.969Z,46.16
2019-01-27T01:42:46.007Z,46.17
2019-01-27T01:43:49.866Z,46.17
2019-01-27T01:44:52.053Z,46.18
2019-01-27T01:45:54.180Z,46.17
2019-01-27T01:46:56.163Z,46.18
2019-01-27T01:47:58.202Z,46.20
2019-01-27T01:49:00.411Z,46.19
2019-01-27T01:50:02.723Z,46.19
2019-01-27T01:51:04.753Z,46.20
2019-01-27T01:52:06.723Z,46.19
2019-01-27T01:53:10.739Z,46.18
2019-01-27T01:54:12.907Z,46.19
2019-01-27T01:55:14.910Z,46.20
2019-01-27T01:56:16.936Z,46.22
2019-01-27T01:57:22.182Z,46.20
2019-01-27T01:58:24.364Z,46.19
2019-01-27T01:59:26.419Z,46.20
2019-01-27T02:00:28.576Z,46.22
2019-01-27T02:01:30.610Z,46.20
2019-01-27T02:02:33.930Z,46.21
2019-01-27T02:03:35.949Z,46.22
2019-01-27T02:04:37.920Z,46.22
2019-01-27T02:05:40.005Z,46.21
2019-01-27T02:06:42.046Z,46.21
2019-01-27T02:07:44.067Z,46.23
2019-01-27T02:08:46.024Z,46.23
2019-01-27T02:09:50.842Z,46.23
2019-01-27T02:10:52.896Z,46.25
2019-01-27T02:11:54.847Z,46.24
2019-01-27T02:12:57.210Z,46.26
2019-01-27T02:13:59.263Z,46.27
2019-01-27T02:15:01.311Z,46.26
2019-01-27T02:16:03.387Z,46.27
2019-01-27T02:17:05.486Z,46.24
2019-01-27T02:18:09.648Z,46.29
2019-01-27T02:19:11.142Z,46.27
2019-01-27T02:20:13.129Z,46.30
2019-01-27T02:21:15.202Z,46.29
2019-01-27T02:22:20.530Z,46.30
2019-01-27T02:23:22.570Z,46.31
2019-01-27T02:24:24.589Z,46.31
2019-01-27T02:25:26.544Z,46.30
2019-01-27T02:26:28.632Z,46.32
2019-01-27T02:27:30.664Z,46.31
2019-01-27T02:28:32.624Z,46.32
2019-01-27T02:29:34.665Z,46.33
2019-01-27T02:30:36.626Z,46.32
2019-01-27T02:31:38.675Z,46.30
2019-01-27T02:32:40.716Z,46.33
2019-01-27T02:33:42.765Z,46.32
2019-01-27T02:34:44.899Z,46.33
2019-01-27T02:35:47.066Z,46.32
2019-01-27T02:36:49.121Z,46.31
2019-01-27T02:37:51.092Z,46.33
2019-01-27T02:38:53.241Z,46.33
2019-01-27T02:39:55.223Z,46.34
2019-01-27T02:40:57.193Z,46.34
2019-01-27T02:41:59.178Z,46.34
2019-01-27T02:43:01.134Z,46.35
2019-01-27T02:44:03.186Z,46.35
2019-01-27T02:45:08.305Z,46.37
2019-01-27T02:46:11.470Z,46.34
2019-01-27T02:47:13.556Z,46.36
2019-01-27T02:48:15.577Z,46.35
2019-01-27T02:49:17.540Z,46.34
2019-01-27T02:50:24.098Z,46.35
2019-01-27T02:51:26.155Z,46.35
2019-01-27T02:52:28.208Z,46.35
2019-01-27T02:53:30.458Z,46.37
2019-01-27T02:54:33.788Z,46.37
2019-01-27T02:55:35.752Z,46.36
2019-01-27T02:56:37.838Z,46.37
2019-01-27T02:57:43.005Z,46.37
2019-01-27T02:58:44.963Z,46.40
2019-01-27T02:59:46.939Z,46.38
2019-01-27T03:00:48.997Z,46.38
2019-01-27T03:01:53.769Z,46.38
2019-01-27T03:02:55.794Z,46.38
2019-01-27T03:03:59.361Z,46.40
2019-01-27T03:05:03.061Z,46.40
2019-01-27T03:06:33.147Z,46.37
2019-01-27T03:07:40.107Z,46.37
2019-01-27T03:09:00.199Z,46.41
2019-01-27T03:10:02.236Z,46.39
2019-01-27T03:11:04.181Z,46.41
2019-01-27T03:12:06.234Z,46.39
2019-01-27T03:13:08.284Z,46.41
2019-01-27T03:14:10.458Z,46.37
2019-01-27T03:15:12.548Z,46.38
2019-01-27T03:16:15.262Z,46.41
2019-01-27T03:17:21.106Z,46.38
2019-01-27T03:18:23.158Z,46.41
2019-01-27T03:19:25.202Z,46.40
2019-01-27T03:20:29.665Z,46.37
2019-01-27T03:21:33.721Z,46.42
2019-01-27T03:22:35.426Z,46.42
2019-01-27T03:23:37.466Z,46.42
2019-01-27T03:24:39.673Z,46.42
2019-01-27T03:25:41.705Z,46.41
2019-01-27T03:26:43.686Z,46.41
2019-01-27T03:27:49.113Z,46.43
2019-01-27T03:28:52.129Z,46.42
2019-01-27T03:29:54.202Z,46.41
2019-01-27T03:30:56.252Z,46.42
2019-01-27T03:32:00.556Z,46.42
2019-01-27T03:33:03.864Z,46.41
2019-01-27T03:34:05.819Z,46.42
2019-01-27T03:35:07.821Z,46.42
2019-01-27T03:36:09.781Z,46.41
2019-01-27T03:37:11.747Z,46.43
2019-01-27T03:38:13.785Z,46.41
2019-01-27T03:39:15.814Z,46.42
2019-01-27T03:40:20.549Z,46.42
2019-01-27T03:41:22.772Z,46.43
2019-01-27T03:42:24.747Z,46.43
2019-01-27T03:43:26.783Z,46.45
2019-01-27T03:44:30.458Z,46.44
2019-01-27T03:45:32.561Z,46.44
2019-01-27T03:46:34.605Z,46.45
2019-01-27T03:47:36.568Z,46.44
2019-01-27T03:48:38.605Z,46.43
2019-01-27T03:49:40.564Z,46.43
2019-01-27T03:50:45.623Z,46.43
2019-01-27T03:51:47.662Z,46.43
2019-01-27T03:52:49.614Z,46.42
2019-01-27T03:53:51.784Z,46.44
2019-01-27T03:54:53.807Z,46.44
2019-01-27T03:55:55.813Z,46.44
2019-01-27T03:56:57.853Z,46.44
2019-01-27T03:58:02.949Z,46.44
2019-01-27T03:59:05.199Z,46.43
2019-01-27T04:00:10.909Z,46.45
2019-01-27T04:01:12.919Z,46.43
2019-01-27T04:02:14.948Z,46.43
2019-01-27T04:03:18.200Z,46.45
2019-01-27T04:04:20.215Z,46.46
2019-01-27T04:05:24.355Z,46.47
2019-01-27T04:06:26.615Z,46.45
2019-01-27T04:07:29.785Z,46.46
2019-01-27T04:08:34.322Z,46.48
2019-01-27T04:09:36.273Z,46.46
2019-01-27T04:10:38.443Z,46.46
2019-01-27T04:11:40.434Z,46.47
2019-01-27T04:12:42.727Z,46.45
2019-01-27T04:13:44.739Z,46.47
2019-01-27T04:14:48.409Z,46.49
2019-01-27T04:15:51.554Z,46.47
2019-01-27T04:16:54.025Z,46.49
2019-01-27T04:17:56.061Z,46.46
2019-01-27T04:19:01.121Z,46.48
2019-01-27T04:20:03.215Z,46.50
2019-01-27T04:21:05.424Z,46.50
2019-01-27T04:22:12.710Z,46.48
2019-01-27T04:23:17.607Z,46.48
2019-01-27T04:24:19.812Z,46.50
2019-01-27T04:25:21.786Z,46.50
2019-01-27T04:26:23.866Z,46.48
2019-01-27T04:27:27.713Z,46.50
2019-01-27T04:28:29.743Z,46.50
2019-01-27T04:29:34.513Z,46.48
2019-01-27T04:30:37.765Z,46.48
2019-01-27T04:31:41.403Z,46.50
2019-01-27T04:32:43.709Z,46.47
2019-01-27T04:33:47.228Z,46.50
2019-01-27T04:34:49.264Z,46.51
2019-01-27T04:35:51.299Z,46.51
2019-01-27T04:36:53.274Z,46.53
2019-01-27T04:37:55.228Z,46.52
2019-01-27T04:38:57.541Z,46.53
2019-01-27T04:39:59.596Z,46.52
2019-01-27T04:41:03.666Z,46.51
2019-01-27T04:42:05.659Z,46.52
2019-01-27T04:43:07.910Z,46.52
2019-01-27T04:44:09.954Z,46.52
2019-01-27T04:45:11.983Z,46.55
2019-01-27T04:46:14.035Z,46.51
2019-01-27T04:47:16.115Z,46.51
2019-01-27T04:48:20.939Z,46.54
2019-01-27T04:49:27.331Z,46.54
2019-01-27T04:50:29.430Z,46.55
2019-01-27T04:51:32.540Z,46.53
2019-01-27T04:52:34.539Z,46.53
2019-01-27T04:53:36.626Z,46.55
2019-01-27T04:54:38.644Z,46.56
2019-01-27T04:55:42.174Z,46.55
2019-01-27T04:56:44.394Z,46.55
2019-01-27T04:57:46.633Z,46.56
2019-01-27T04:58:50.856Z,46.55
2019-01-27T04:59:55.242Z,46.56
2019-01-27T05:00:57.266Z,46.55
2019-01-27T05:02:02.066Z,46.55
2019-01-27T05:03:18.610Z,46.59
2019-01-27T05:04:39.023Z,46.56
2019-01-27T05:05:41.338Z,46.59
2019-01-27T05:06:45.101Z,46.56
2019-01-27T05:07:47.129Z,46.55
2019-01-27T05:08:49.126Z,46.55
2019-01-27T05:09:51.109Z,46.58
2019-01-27T05:10:53.138Z,46.59
2019-01-27T05:11:55.322Z,46.58
2019-01-27T05:12:57.382Z,46.58
2019-01-27T05:13:59.415Z,46.59
2019-01-27T05:15:01.381Z,46.59
2019-01-27T05:16:05.302Z,46.59
2019-01-27T05:17:07.380Z,46.60
2019-01-27T05:18:09.364Z,46.60
2019-01-27T05:19:11.412Z,46.60
2019-01-27T05:20:13.368Z,46.60
2019-01-27T05:21:15.318Z,46.60
2019-01-27T05:22:17.290Z,46.62
2019-01-27T05:23:20.874Z,46.61
2019-01-27T05:24:22.854Z,46.60
2019-01-27T05:25:26.958Z,46.61
2019-01-27T05:26:28.990Z,46.60
2019-01-27T05:27:31.140Z,46.64
2019-01-27T05:28:33.106Z,46.62
2019-01-27T05:29:35.157Z,46.61
2019-01-27T05:30:40.673Z,46.63
2019-01-27T05:31:42.985Z,46.64
2019-01-27T05:32:45.047Z,46.64
2019-01-27T05:33:47.083Z,46.63
2019-01-27T05:34:49.164Z,46.62
2019-01-27T05:35:51.198Z,46.63
2019-01-27T05:36:53.396Z,46.62
2019-01-27T05:37:55.423Z,46.62
2019-01-27T05:38:57.474Z,46.63
2019-01-27T05:40:02.700Z,46.62
2019-01-27T05:41:09.426Z,46.62
2019-01-27T05:42:11.462Z,46.62
2019-01-27T05:43:14.649Z,46.61
2019-01-27T05:44:16.600Z,46.61
2019-01-27T05:45:18.578Z,46.62
2019-01-27T05:46:21.558Z,46.61
2019-01-27T05:47:24.884Z,46.60
2019-01-27T05:48:26.972Z,46.60
2019-01-27T05:49:31.108Z,46.59
2019-01-27T05:50:32.836Z,46.56
2019-01-27T05:51:34.873Z,46.56
2019-01-27T05:52:37.130Z,46.55
2019-01-27T05:53:44.011Z,46.55
2019-01-27T05:54:46.036Z,46.55
2019-01-27T05:55:48.106Z,46.63
2019-01-27T05:56:56.494Z,46.58
2019-01-27T05:57:53.777Z,46.57
2019-01-27T05:58:55.807Z,46.52
2019-01-27T05:59:59.652Z,46.47
2019-01-27T06:01:01.732Z,46.53
2019-01-27T06:02:08.547Z,46.52
2019-01-27T06:03:10.582Z,46.52
2019-01-27T06:04:12.625Z,46.52
2019-01-27T06:05:16.554Z,46.51
2019-01-27T06:06:21.612Z,46.55
2019-01-27T06:07:23.617Z,46.50
2019-01-27T06:08:25.648Z,46.45
2019-01-27T06:09:27.682Z,46.47
2019-01-27T06:10:29.933Z,46.50
2019-01-27T06:11:33.635Z,46.49
2019-01-27T06:12:35.760Z,46.57
2019-01-27T06:13:37.799Z,46.46
2019-01-27T06:14:39.842Z,46.43
2019-01-27T06:15:41.815Z,46.49
2019-01-27T06:16:43.971Z,46.50
2019-01-27T06:17:47.798Z,46.52
2019-01-27T06:18:49.839Z,46.53
2019-01-27T06:19:52.181Z,46.53
2019-01-27T06:20:54.236Z,46.55
2019-01-27T06:21:56.416Z,46.45
2019-01-27T06:22:58.463Z,46.50
2019-01-27T06:24:00.519Z,46.49
2019-01-27T06:25:02.696Z,46.54
2019-01-27T06:26:04.725Z,46.50
2019-01-27T06:27:06.715Z,46.47
2019-01-27T06:28:08.743Z,46.50
2019-01-27T06:29:10.775Z,46.47
2019-01-27T06:30:12.836Z,46.50
2019-01-27T06:31:16.400Z,46.50
2019-01-27T06:32:35.463Z,46.52
2019-01-27T06:33:51.025Z,46.51
2019-01-27T06:34:53.080Z,46.44
2019-01-27T06:35:55.040Z,46.44
2019-01-27T06:36:57.085Z,46.47
2019-01-27T06:37:59.123Z,46.44
2019-01-27T06:39:01.078Z,46.45
2019-01-27T06:40:03.051Z,46.46
2019-01-27T06:41:07.107Z,46.51
2019-01-27T06:42:08.777Z,46.51
2019-01-27T06:43:11.775Z,46.50
2019-01-27T06:44:13.775Z,46.51
2019-01-27T06:45:15.943Z,46.51
2019-01-27T06:46:22.395Z,46.51
2019-01-27T06:47:24.452Z,46.52
2019-01-27T06:48:26.425Z,46.55
2019-01-27T06:49:28.387Z,46.57
2019-01-27T06:50:30.359Z,46.55
2019-01-27T06:51:32.393Z,46.53
2019-01-27T06:52:34.377Z,46.55
2019-01-27T06:53:36.431Z,46.55
2019-01-27T06:54:38.473Z,46.56
2019-01-27T06:55:42.373Z,46.58
2019-01-27T06:56:44.117Z,46.56
2019-01-27T06:57:46.173Z,46.58
2019-01-27T06:59:04.971Z,46.60
2019-01-27T07:00:16.965Z,46.60
2019-01-27T07:01:53.279Z,46.58
2019-01-27T07:03:01.584Z,46.59
2019-01-27T07:04:12.523Z,46.59
2019-01-27T07:05:20.106Z,46.61
2019-01-27T07:06:31.263Z,46.66
2019-01-27T07:07:43.659Z,46.68
2019-01-27T07:08:52.513Z,46.70
2019-01-27T07:10:16.593Z,46.66
2019-01-27T07:11:47.067Z,46.65
2019-01-27T07:12:56.401Z,46.68
2019-01-27T07:14:23.524Z,46.72
2019-01-27T07:15:38.699Z,46.71
2019-01-27T07:17:02.872Z,46.71
2019-01-27T07:18:15.135Z,46.69
2019-01-27T07:19:36.208Z,46.70
2019-01-27T07:20:48.126Z,46.68
2019-01-27T07:22:10.890Z,46.70
2019-01-27T07:23:31.925Z,46.72
2019-01-27T07:24:40.328Z,46.74
2019-01-27T07:25:55.970Z,46.72
2019-01-27T07:27:13.077Z,46.74
2019-01-27T07:28:34.113Z,46.74
2019-01-27T07:29:52.240Z,46.75
2019-01-27T07:31:09.705Z,46.75
2019-01-27T07:34:08.594Z,46.77
2019-01-27T07:35:28.607Z,46.75
2019-01-27T07:36:50.732Z,46.75
2019-01-27T07:38:26.918Z,46.75
2019-01-27T07:39:37.304Z,46.75
2019-01-27T07:40:57.234Z,46.74
2019-01-27T07:42:07.934Z,46.74
2019-01-27T07:43:34.803Z,46.75
2019-01-27T07:44:47.412Z,46.74
2019-01-27T07:46:08.532Z,46.74
2019-01-27T07:47:26.735Z,46.77
2019-01-27T07:48:46.765Z,46.77
2019-01-27T07:50:06.784Z,46.75
2019-01-27T07:51:30.850Z,46.75
2019-01-27T07:52:56.928Z,46.76
2019-01-27T07:54:16.719Z,46.76
2019-01-27T07:55:37.753Z,46.75
2019-01-27T07:56:48.310Z,46.75
2019-01-27T07:58:00.688Z,46.75
2019-01-27T07:59:24.626Z,46.75
2019-01-27T08:00:36.759Z,46.75
2019-01-27T08:02:00.982Z,46.76
2019-01-27T08:03:17.728Z,46.76
2019-01-27T08:04:35.860Z,46.75
2019-01-27T08:05:48.292Z,46.75
2019-01-27T08:07:01.424Z,46.75
2019-01-27T08:08:13.672Z,46.75
2019-01-27T08:09:33.593Z,46.76
2019-01-27T08:10:48.074Z,46.75
2019-01-27T08:12:09.133Z,46.76
2019-01-27T08:13:36.221Z,46.75
2019-01-27T08:15:00.289Z,46.75
2019-01-27T08:16:09.909Z,46.75
2019-01-27T08:17:26.751Z,46.75
2019-01-27T08:18:54.374Z,46.73
2019-01-27T08:20:01.863Z,46.74
2019-01-27T08:21:23.479Z,46.73
2019-01-27T08:22:41.813Z,46.74
2019-01-27T08:24:12.125Z,46.73
2019-01-27T08:25:32.624Z,46.72
2019-01-27T08:27:10.768Z,46.72
2019-01-27T08:28:25.577Z,46.73
2019-01-27T08:29:38.793Z,46.72
2019-01-27T08:30:46.981Z,46.72
2019-01-27T08:32:10.901Z,46.71
2019-01-27T08:33:27.253Z,46.73
2019-01-27T08:34:37.281Z,46.75
2019-01-27T08:36:04.195Z,46.71
2019-01-27T08:37:23.380Z,46.72
2019-01-27T08:38:31.180Z,46.70
2019-01-27T08:39:52.890Z,46.70
2019-01-27T08:41:26.137Z,46.70
2019-01-27T08:42:53.226Z,46.68
2019-01-27T08:44:08.687Z,46.65
2019-01-27T08:45:32.817Z,46.66
2019-01-27T08:46:56.044Z,46.64
2019-01-27T08:47:58.102Z,46.64
2019-01-27T08:49:00.093Z,46.67
2019-01-27T08:50:02.128Z,46.69
2019-01-27T08:51:04.149Z,46.69
2019-01-27T08:52:06.120Z,46.69
2019-01-27T08:53:08.207Z,46.69
2019-01-27T08:54:10.265Z,46.71
2019-01-27T08:55:12.225Z,46.72
2019-01-27T08:56:14.259Z,46.74
2019-01-27T08:57:16.584Z,46.72
2019-01-27T08:58:18.558Z,46.74
2019-01-27T08:59:20.534Z,46.71
2019-01-27T09:00:29.731Z,46.73
2019-01-27T09:01:54.037Z,46.71
2019-01-27T09:03:11.344Z,46.70
2019-01-27T09:04:21.126Z,46.74
2019-01-27T09:05:41.923Z,46.75
2019-01-27T09:06:56.751Z,46.74
2019-01-27T09:08:16.341Z,46.75
2019-01-27T09:09:38.163Z,46.75
2019-01-27T09:10:47.867Z,46.76
2019-01-27T09:12:09.807Z,46.74
2019-01-27T09:13:33.919Z,46.74
2019-01-27T09:14:44.746Z,46.74
2019-01-27T09:16:03.653Z,46.75
2019-01-27T09:17:33.848Z,46.75
2019-01-27T09:18:46.061Z,46.75
2019-01-27T09:20:19.118Z,46.77
2019-01-27T09:21:34.055Z,46.76
2019-01-27T09:22:53.946Z,46.75
2019-01-27T09:24:09.349Z,46.77
2019-01-27T09:25:29.649Z,46.75
2019-01-27T09:26:36.693Z,46.75
2019-01-27T09:27:44.724Z,46.76
2019-01-27T09:29:11.988Z,46.74
2019-01-27T09:30:33.154Z,46.76
2019-01-27T09:31:46.183Z,46.78
2019-01-27T09:33:01.014Z,46.78
2019-01-27T09:34:16.070Z,46.78
2019-01-27T09:35:46.411Z,46.80
2019-01-27T09:37:13.338Z,46.80
2019-01-27T09:38:38.742Z,46.83
2019-01-27T09:39:51.037Z,46.86
2019-01-27T09:41:11.319Z,46.87
2019-01-27T09:42:31.429Z,46.89
2019-01-27T09:43:52.099Z,46.90
2019-01-27T09:45:00.787Z,46.91
2019-01-27T09:46:14.339Z,46.93
2019-01-27T09:49:03.070Z,46.94
2019-01-27T09:50:13.899Z,46.95
2019-01-27T09:51:30.954Z,46.98
2019-01-27T09:52:50.917Z,46.99
2019-01-27T09:54:30.159Z,47.01
2019-01-27T09:55:51.052Z,46.99
2019-01-27T09:57:12.010Z,47.01
2019-01-27T09:58:42.369Z,47.00
2019-01-27T10:00:02.275Z,47.01
2019-01-27T10:01:09.966Z,47.03
2019-01-27T10:02:34.749Z,47.04
2019-01-27T10:03:45.275Z,47.03
2019-01-27T10:05:06.312Z,47.05
2019-01-27T10:06:25.879Z,47.09
2019-01-27T10:07:46.939Z,47.10
2019-01-27T10:09:08.205Z,47.10
2019-01-27T10:10:24.337Z,47.09
2019-01-27T10:11:42.765Z,47.10
2019-01-27T10:12:56.698Z,47.11
2019-01-27T10:14:26.998Z,47.09
2019-01-27T10:15:50.903Z,47.11
2019-01-27T10:17:15.668Z,47.12
2019-01-27T10:18:48.682Z,47.12
2019-01-27T10:20:15.249Z,47.13
2019-01-27T10:21:32.016Z,47.12
2019-01-27T10:22:42.005Z,47.12
2019-01-27T10:24:00.038Z,47.11
2019-01-27T10:25:26.678Z,47.13
2019-01-27T10:26:36.353Z,47.15
2019-01-27T10:27:48.902Z,47.15
2019-01-27T10:29:12.990Z,47.15
2019-01-27T10:30:22.506Z,47.15
2019-01-27T10:31:49.696Z,47.14
2019-01-27T10:33:09.400Z,47.15
2019-01-27T10:34:26.119Z,47.14
2019-01-27T10:35:49.352Z,47.15
2019-01-27T10:37:03.261Z,47.15
2019-01-27T10:38:20.528Z,47.20
2019-01-27T10:39:47.605Z,47.20
2019-01-27T10:40:55.344Z,47.17
2019-01-27T10:42:10.168Z,47.19
2019-01-27T10:43:26.704Z,47.17
2019-01-27T10:44:41.755Z,47.16
2019-01-27T10:46:08.628Z,47.19
2019-01-27T10:48:54.481Z,47.15
2019-01-27T10:50:02.814Z,47.15
2019-01-27T10:51:29.735Z,47.17
2019-01-27T10:52:50.466Z,47.14
2019-01-27T10:54:04.371Z,47.14
2019-01-27T10:55:12.672Z,47.12
2019-01-27T10:56:25.758Z,47.13
2019-01-27T10:57:45.518Z,47.10
2019-01-27T10:59:09.606Z,47.15
2019-01-27T11:00:29.632Z,47.13
2019-01-27T11:01:59.729Z,47.13
2019-01-27T11:03:11.299Z,47.14
2019-01-27T11:04:38.458Z,47.12
2019-01-27T11:05:48.241Z,47.13
2019-01-27T11:06:57.886Z,47.13
2019-01-27T11:08:19.483Z,47.11
2019-01-27T11:09:29.842Z,47.10
2019-01-27T11:11:09.049Z,47.11
2019-01-27T11:12:27.728Z,47.10
2019-01-27T11:13:51.415Z,47.12
2019-01-27T11:15:14.690Z,47.15
2019-01-27T11:18:13.279Z,47.14
2019-01-27T11:19:33.791Z,47.11
2019-01-27T11:20:54.431Z,47.13
2019-01-27T11:22:14.360Z,47.13
2019-01-27T11:23:29.313Z,47.12
2019-01-27T11:24:50.355Z,47.12
2019-01-27T11:26:05.376Z,47.12
2019-01-27T11:27:33.088Z,47.12
2019-01-27T11:28:48.800Z,47.10
2019-01-27T11:30:06.949Z,47.09
2019-01-27T11:31:28.060Z,47.11
2019-01-27T11:32:55.492Z,47.10
2019-01-27T11:34:15.270Z,47.11
2019-01-27T11:35:54.688Z,47.12
2019-01-27T11:37:13.973Z,47.13
2019-01-27T11:38:44.355Z,47.11
2019-01-27T11:40:17.865Z,47.11
2019-01-27T11:41:47.379Z,47.10
2019-01-27T11:43:08.490Z,47.10
2019-01-27T11:44:29.220Z,47.10
2019-01-27T11:45:59.811Z,47.11
2019-01-27T11:47:11.834Z,47.11
2019-01-27T11:48:32.869Z,47.11
2019-01-27T11:49:44.349Z,47.13
2019-01-27T11:50:56.673Z,47.12
2019-01-27T11:52:05.927Z,47.11
2019-01-27T11:53:09.054Z,47.12
2019-01-27T11:54:11.029Z,47.15
2019-01-27T11:55:13.060Z,47.13
2019-01-27T11:56:15.282Z,47.15
2019-01-27T11:57:17.395Z,47.15
2019-01-27T11:58:22.395Z,47.16
2019-01-27T11:59:24.335Z,47.13
2019-01-27T12:00:34.876Z,47.13
2019-01-27T12:01:36.911Z,47.11
2019-01-27T12:02:38.983Z,47.12
2019-01-27T12:03:40.934Z,47.13
2019-01-27T12:04:42.910Z,47.13
2019-01-27T12:05:44.941Z,47.15
2019-01-27T12:06:46.952Z,47.16
2019-01-27T12:07:48.940Z,47.14
2019-01-27T12:08:50.958Z,47.14
2019-01-27T12:09:52.993Z,47.13
2019-01-27T12:10:54.947Z,47.12
2019-01-27T12:11:56.921Z,47.14
2019-01-27T12:12:58.935Z,47.14
2019-01-27T12:14:00.958Z,47.15
2019-01-27T12:15:03.194Z,47.16
2019-01-27T12:16:05.232Z,47.16
2019-01-27T12:17:07.256Z,47.16
2019-01-27T12:18:09.269Z,47.17
2019-01-27T12:19:11.302Z,47.18
2019-01-27T12:20:16.440Z,47.18
2019-01-27T12:21:18.399Z,47.17
2019-01-27T12:22:20.670Z,47.17
2019-01-27T12:23:22.725Z,47.16
2019-01-27T12:24:24.761Z,47.16
2019-01-27T12:25:26.776Z,47.15
2019-01-27T12:26:28.723Z,47.17
2019-01-27T12:27:30.684Z,47.16
2019-01-27T12:28:32.705Z,47.17
2019-01-27T12:29:34.723Z,47.17
2019-01-27T12:30:36.756Z,47.18
2019-01-27T12:31:38.795Z,47.19
2019-01-27T12:32:40.761Z,47.18
2019-01-27T12:33:42.809Z,47.18
2019-01-27T12:34:44.763Z,47.20
2019-01-27T12:35:46.719Z,47.21
2019-01-27T12:36:48.741Z,47.20
2019-01-27T12:37:50.977Z,47.22
2019-01-27T12:38:56.211Z,47.23
2019-01-27T12:39:58.176Z,47.24
2019-01-27T12:41:00.133Z,47.25
2019-01-27T12:42:02.103Z,47.24
2019-01-27T12:43:04.137Z,47.26
2019-01-27T12:44:06.136Z,47.25
2019-01-27T12:45:08.169Z,47.25
2019-01-27T12:46:10.198Z,47.27
2019-01-27T12:47:12.238Z,47.25
2019-01-27T12:48:14.201Z,47.27
2019-01-27T12:49:16.253Z,47.27
2019-01-27T12:50:18.211Z,47.24
2019-01-27T12:51:20.251Z,47.24
2019-01-27T12:52:22.282Z,47.27
2019-01-27T12:53:24.315Z,47.28
2019-01-27T12:54:26.450Z,47.27
2019-01-27T12:55:28.492Z,47.28
2019-01-27T12:56:30.460Z,47.27
2019-01-27T12:57:32.457Z,47.23
2019-01-27T12:58:34.492Z,47.22
2019-01-27T12:59:36.669Z,47.21
2019-01-27T13:00:38.691Z,47.21
2019-01-27T13:01:40.655Z,47.21
2019-01-27T13:02:42.666Z,47.22
2019-01-27T13:03:44.613Z,47.25
2019-01-27T13:04:46.589Z,47.28
2019-01-27T13:05:48.551Z,47.30
2019-01-27T13:06:50.524Z,47.29
2019-01-27T13:07:52.542Z,47.29
2019-01-27T13:08:54.494Z,47.29
2019-01-27T13:09:56.479Z,47.29
2019-01-27T13:10:59.193Z,47.29
2019-01-27T13:12:01.232Z,47.29
2019-01-27T13:13:03.274Z,47.28
2019-01-27T13:14:05.305Z,47.30
2019-01-27T13:15:07.532Z,47.30
2019-01-27T13:16:09.484Z,47.30
2019-01-27T13:17:11.631Z,47.29
2019-01-27T13:18:13.826Z,47.29
2019-01-27T13:19:15.846Z,47.30
2019-01-27T13:20:17.836Z,47.28
2019-01-27T13:21:19.782Z,47.28
2019-01-27T13:22:21.758Z,47.29
2019-01-27T13:23:23.782Z,47.29
2019-01-27T13:24:27.954Z,47.29
2019-01-27T13:25:29.952Z,47.32
2019-01-27T13:26:31.995Z,47.30
2019-01-27T13:27:34.035Z,47.31
2019-01-27T13:28:36.010Z,47.33
2019-01-27T13:29:37.963Z,47.33
2019-01-27T13:30:39.966Z,47.32
2019-01-27T13:31:41.981Z,47.32
2019-01-27T13:32:43.953Z,47.32
2019-01-27T13:33:45.974Z,47.32
2019-01-27T13:34:47.941Z,47.34
2019-01-27T13:35:49.996Z,47.36
2019-01-27T13:36:52.039Z,47.35
2019-01-27T13:37:53.992Z,47.36
2019-01-27T13:38:55.949Z,47.36
2019-01-27T13:39:57.960Z,47.34
2019-01-27T13:40:59.938Z,47.34
2019-01-27T13:42:01.894Z,47.32
2019-01-27T13:43:06.631Z,47.34
2019-01-27T13:44:08.660Z,47.34
2019-01-27T13:45:10.650Z,47.37
2019-01-27T13:46:12.711Z,47.37
2019-01-27T13:47:14.662Z,47.37
2019-01-27T13:48:16.717Z,47.38
2019-01-27T13:49:18.702Z,47.39
2019-01-27T13:50:20.890Z,47.38
2019-01-27T13:51:22.958Z,47.38
2019-01-27T13:52:24.944Z,47.40
2019-01-27T13:53:26.922Z,47.42
2019-01-27T13:54:28.973Z,47.41
2019-01-27T13:55:31.006Z,47.40
2019-01-27T13:56:33.051Z,47.43
2019-01-27T13:57:35.094Z,47.45
2019-01-27T13:58:40.173Z,47.43
2019-01-27T13:59:42.224Z,47.44
2019-01-27T14:00:44.197Z,47.44
2019-01-27T14:01:46.275Z,47.44
2019-01-27T14:02:48.371Z,47.43
2019-01-27T14:03:50.350Z,47.44
2019-01-27T14:04:52.368Z,47.42
2019-01-27T14:05:54.524Z,47.44
2019-01-27T14:06:56.535Z,47.44
2019-01-27T14:07:58.564Z,47.44
2019-01-27T14:09:00.605Z,47.43
2019-01-27T14:10:02.636Z,47.42
2019-01-27T14:11:04.663Z,47.42
2019-01-27T14:12:06.674Z,47.46
2019-01-27T14:13:08.634Z,47.46
2019-01-27T14:14:10.580Z,47.47
2019-01-27T14:15:13.158Z,47.48
2019-01-27T14:16:15.349Z,47.48
2019-01-27T14:17:17.422Z,47.51
2019-01-27T14:18:19.385Z,47.51
2019-01-27T14:19:21.363Z,47.51
2019-01-27T14:20:23.397Z,47.48
2019-01-27T14:21:28.033Z,47.52
2019-01-27T14:22:30.053Z,47.53
2019-01-27T14:23:32.110Z,47.51
2019-01-27T14:24:34.061Z,47.52
2019-01-27T14:25:36.017Z,47.48
2019-01-27T14:26:38.042Z,47.50
2019-01-27T14:27:40.203Z,47.52
2019-01-27T14:28:42.228Z,47.52
2019-01-27T14:29:45.269Z,47.51
2019-01-27T14:30:47.371Z,47.52